sensor_id;sensor_type;location;lat;lon;timestamp;temperature;humidity
20070;DHT22;10195;50.868;4.382;2023-02-20T00:00:52;7.60;99.90
20070;DHT22;10195;50.868;4.382;2023-02-20T00:03:18;7.60;99.90
20070;DHT22;10195;50.868;4.382;2023-02-20T00:05:44;7.60;99.90
20070;DHT22;10195;50.868;4.382;2023-02-20T00:08:09;7.50;99.90
20070;DHT22;10195;50.868;4.382;2023-02-20T00:10:35;7.60;99.90
20070;DHT22;10195;50.868;4.382;2023-02-20T00:13:01;7.50;99.90
20070;DHT22;10195;50.868;4.382;2023-02-20T00:15:26;7.60;99.90
20070;DHT22;10195;50.868;4.382;2023-02-20T00:17:52;7.50;99.90
20070;DHT22;10195;50.868;4.382;2023-02-20T00:20:20;7.40;99.90
20070;DHT22;10195;50.868;4.382;2023-02-20T00:22:47;7.40;99.90
20070;DHT22;10195;50.868;4.382;2023-02-20T00:25:17;7.40;99.90
20070;DHT22;10195;50.868;4.382;2023-02-20T00:27:43;7.40;99.90
20070;DHT22;10195;50.868;4.382;2023-02-20T00:30:13;7.30;99.90
20070;DHT22;10195;50.868;4.382;2023-02-20T00:32:39;7.30;99.90
20070;DHT22;10195;50.868;4.382;2023-02-20T00:35:05;7.30;99.90
20070;DHT22;10195;50.868;4.382;2023-02-20T00:37:31;7.30;99.90
20070;DHT22;10195;50.868;4.382;2023-02-20T00:39:56;7.30;99.90
20070;DHT22;10195;50.868;4.382;2023-02-20T00:42:22;7.20;99.90
20070;DHT22;10195;50.868;4.382;2023-02-20T00:44:47;7.20;99.90
20070;DHT22;10195;50.868;4.382;2023-02-20T00:47:13;7.20;99.90
20070;DHT22;10195;50.868;4.382;2023-02-20T00:49:39;7.20;99.90
20070;DHT22;10195;50.868;4.382;2023-02-20T00:52:04;7.20;99.90
20070;DHT22;10195;50.868;4.382;2023-02-20T00:54:30;7.20;99.90
20070;DHT22;10195;50.868;4.382;2023-02-20T00:56:55;7.20;99.90
20070;DHT22;10195;50.868;4.382;2023-02-20T00:59:21;7.20;99.90
20070;DHT22;10195;50.868;4.382;2023-02-20T01:01:47;7.20;99.90
20070;DHT22;10195;50.868;4.382;2023-02-20T01:04:12;7.20;99.90
20070;DHT22;10195;50.868;4.382;2023-02-20T01:06:38;7.20;99.90
20070;DHT22;10195;50.868;4.382;2023-02-20T01:09:04;7.30;99.90
20070;DHT22;10195;50.868;4.382;2023-02-20T01:11:30;7.20;99.90
20070;DHT22;10195;50.868;4.382;2023-02-20T01:13:56;7.20;99.90
20070;DHT22;10195;50.868;4.382;2023-02-20T01:16:21;7.10;99.90
20070;DHT22;10195;50.868;4.382;2023-02-20T01:18:51;7.10;99.90
20070;DHT22;10195;50.868;4.382;2023-02-20T01:21:17;7.20;99.90
20070;DHT22;10195;50.868;4.382;2023-02-20T01:23:42;7.20;99.90
20070;DHT22;10195;50.868;4.382;2023-02-20T01:26:08;7.20;99.90
20070;DHT22;10195;50.868;4.382;2023-02-20T01:28:33;7.20;99.90
20070;DHT22;10195;50.868;4.382;2023-02-20T01:30:59;7.20;99.90
20070;DHT22;10195;50.868;4.382;2023-02-20T01:33:25;7.20;99.90
20070;DHT22;10195;50.868;4.382;2023-02-20T01:35:51;7.20;99.90
20070;DHT22;10195;50.868;4.382;2023-02-20T01:38:16;7.10;99.90
20070;DHT22;10195;50.868;4.382;2023-02-20T01:40:46;7.20;99.90
20070;DHT22;10195;50.868;4.382;2023-02-20T01:43:13;7.20;99.90
20070;DHT22;10195;50.868;4.382;2023-02-20T01:45:40;7.20;99.90
20070;DHT22;10195;50.868;4.382;2023-02-20T01:48:11;7.30;99.90
20070;DHT22;10195;50.868;4.382;2023-02-20T01:50:41;7.40;99.90
20070;DHT22;10195;50.868;4.382;2023-02-20T01:53:13;7.40;99.90
20070;DHT22;10195;50.868;4.382;2023-02-20T01:55:46;7.40;99.90
20070;DHT22;10195;50.868;4.382;2023-02-20T01:58:28;7.40;99.90
20070;DHT22;10195;50.868;4.382;2023-02-20T02:00:56;7.40;99.90
20070;DHT22;10195;50.868;4.382;2023-02-20T02:03:29;7.50;99.90
20070;DHT22;10195;50.868;4.382;2023-02-20T02:06:02;7.60;99.90
20070;DHT22;10195;50.868;4.382;2023-02-20T02:08:29;7.60;99.90
20070;DHT22;10195;50.868;4.382;2023-02-20T02:11:08;7.60;99.90
20070;DHT22;10195;50.868;4.382;2023-02-20T02:13:36;7.60;99.90
20070;DHT22;10195;50.868;4.382;2023-02-20T02:29:41;7.70;99.90
20070;DHT22;10195;50.868;4.382;2023-02-20T02:37:50;7.70;99.90
20070;DHT22;10195;50.868;4.382;2023-02-20T02:40:27;7.70;99.90
20070;DHT22;10195;50.868;4.382;2023-02-20T02:45:51;7.70;99.90
20070;DHT22;10195;50.868;4.382;2023-02-20T02:48:51;7.70;99.90
20070;DHT22;10195;50.868;4.382;2023-02-20T02:51:21;7.70;99.90
20070;DHT22;10195;50.868;4.382;2023-02-20T02:56:37;7.70;99.90
20070;DHT22;10195;50.868;4.382;2023-02-20T02:59:05;7.70;99.90
20070;DHT22;10195;50.868;4.382;2023-02-20T03:01:34;7.70;99.90
20070;DHT22;10195;50.868;4.382;2023-02-20T03:04:05;7.70;99.90
20070;DHT22;10195;50.868;4.382;2023-02-20T03:06:36;7.70;99.90
20070;DHT22;10195;50.868;4.382;2023-02-20T03:09:11;7.80;99.90
20070;DHT22;10195;50.868;4.382;2023-02-20T03:11:39;7.90;99.90
20070;DHT22;10195;50.868;4.382;2023-02-20T03:14:27;7.90;99.90
20070;DHT22;10195;50.868;4.382;2023-02-20T03:17:29;8.00;99.90
20070;DHT22;10195;50.868;4.382;2023-02-20T03:20:10;7.90;99.90
20070;DHT22;10195;50.868;4.382;2023-02-20T03:22:45;8.00;99.90
20070;DHT22;10195;50.868;4.382;2023-02-20T03:25:40;8.00;99.90
20070;DHT22;10195;50.868;4.382;2023-02-20T03:28:12;8.10;99.90
20070;DHT22;10195;50.868;4.382;2023-02-20T03:33:24;7.90;99.90
20070;DHT22;10195;50.868;4.382;2023-02-20T03:36:19;7.90;99.90
20070;DHT22;10195;50.868;4.382;2023-02-20T03:39:09;7.90;99.90
20070;DHT22;10195;50.868;4.382;2023-02-20T03:41:56;8.00;99.90
20070;DHT22;10195;50.868;4.382;2023-02-20T03:44:42;8.00;99.90
20070;DHT22;10195;50.868;4.382;2023-02-20T03:47:12;8.00;99.90
20070;DHT22;10195;50.868;4.382;2023-02-20T03:49:41;8.10;99.90
20070;DHT22;10195;50.868;4.382;2023-02-20T03:52:07;8.10;99.90
20070;DHT22;10195;50.868;4.382;2023-02-20T03:54:34;8.20;99.90
20070;DHT22;10195;50.868;4.382;2023-02-20T03:57:08;8.10;99.90
20070;DHT22;10195;50.868;4.382;2023-02-20T03:59:49;8.10;99.90
20070;DHT22;10195;50.868;4.382;2023-02-20T04:02:23;8.10;99.90
20070;DHT22;10195;50.868;4.382;2023-02-20T04:04:52;8.20;99.90
20070;DHT22;10195;50.868;4.382;2023-02-20T04:07:44;8.20;99.90
20070;DHT22;10195;50.868;4.382;2023-02-20T04:10:11;8.20;99.90
20070;DHT22;10195;50.868;4.382;2023-02-20T04:12:42;8.10;99.90
20070;DHT22;10195;50.868;4.382;2023-02-20T04:15:09;8.10;99.90
20070;DHT22;10195;50.868;4.382;2023-02-20T04:17:41;8.10;99.90
20070;DHT22;10195;50.868;4.382;2023-02-20T04:20:09;8.10;99.90
20070;DHT22;10195;50.868;4.382;2023-02-20T04:22:38;8.10;99.90
20070;DHT22;10195;50.868;4.382;2023-02-20T04:28:01;8.20;99.90
20070;DHT22;10195;50.868;4.382;2023-02-20T04:30:28;8.20;99.90
20070;DHT22;10195;50.868;4.382;2023-02-20T04:32:54;8.30;99.90
20070;DHT22;10195;50.868;4.382;2023-02-20T04:35:20;8.20;99.90
20070;DHT22;10195;50.868;4.382;2023-02-20T04:37:46;8.20;99.90
20070;DHT22;10195;50.868;4.382;2023-02-20T04:40:14;8.30;99.90
20070;DHT22;10195;50.868;4.382;2023-02-20T04:42:40;8.20;99.90
20070;DHT22;10195;50.868;4.382;2023-02-20T04:45:06;8.20;99.90
20070;DHT22;10195;50.868;4.382;2023-02-20T04:47:31;8.20;99.90
20070;DHT22;10195;50.868;4.382;2023-02-20T04:49:57;8.30;99.90
20070;DHT22;10195;50.868;4.382;2023-02-20T04:52:23;8.40;99.90
20070;DHT22;10195;50.868;4.382;2023-02-20T04:54:49;8.30;99.90
20070;DHT22;10195;50.868;4.382;2023-02-20T04:57:15;8.30;99.90
20070;DHT22;10195;50.868;4.382;2023-02-20T04:59:41;8.30;99.90
20070;DHT22;10195;50.868;4.382;2023-02-20T05:02:07;8.30;99.90
20070;DHT22;10195;50.868;4.382;2023-02-20T05:04:33;8.40;99.90
20070;DHT22;10195;50.868;4.382;2023-02-20T05:06:59;8.40;99.90
20070;DHT22;10195;50.868;4.382;2023-02-20T05:09:25;8.40;99.90
20070;DHT22;10195;50.868;4.382;2023-02-20T05:11:51;8.40;99.90
20070;DHT22;10195;50.868;4.382;2023-02-20T05:14:17;8.30;99.90
20070;DHT22;10195;50.868;4.382;2023-02-20T05:16:43;8.20;99.90
20070;DHT22;10195;50.868;4.382;2023-02-20T05:19:10;8.20;99.90
20070;DHT22;10195;50.868;4.382;2023-02-20T05:21:36;8.30;99.90
20070;DHT22;10195;50.868;4.382;2023-02-20T05:24:21;8.30;99.90
20070;DHT22;10195;50.868;4.382;2023-02-20T05:26:48;8.30;99.90
20070;DHT22;10195;50.868;4.382;2023-02-20T05:29:14;8.30;99.90
20070;DHT22;10195;50.868;4.382;2023-02-20T05:31:40;8.30;99.90
20070;DHT22;10195;50.868;4.382;2023-02-20T05:34:06;8.10;99.90
20070;DHT22;10195;50.868;4.382;2023-02-20T05:36:32;8.20;99.90
20070;DHT22;10195;50.868;4.382;2023-02-20T05:38:58;8.20;99.90
20070;DHT22;10195;50.868;4.382;2023-02-20T05:41:24;8.20;99.90
20070;DHT22;10195;50.868;4.382;2023-02-20T05:43:49;8.20;99.90
20070;DHT22;10195;50.868;4.382;2023-02-20T05:46:16;8.30;99.90
20070;DHT22;10195;50.868;4.382;2023-02-20T05:48:42;8.20;99.90
20070;DHT22;10195;50.868;4.382;2023-02-20T05:51:07;8.10;99.90
20070;DHT22;10195;50.868;4.382;2023-02-20T05:53:33;8.10;99.90
20070;DHT22;10195;50.868;4.382;2023-02-20T05:55:59;8.20;99.90
20070;DHT22;10195;50.868;4.382;2023-02-20T05:58:24;8.20;99.90
20070;DHT22;10195;50.868;4.382;2023-02-20T06:00:50;8.30;99.90
20070;DHT22;10195;50.868;4.382;2023-02-20T06:03:17;8.20;99.90
20070;DHT22;10195;50.868;4.382;2023-02-20T06:05:43;8.30;99.90
20070;DHT22;10195;50.868;4.382;2023-02-20T06:08:09;8.30;99.90
20070;DHT22;10195;50.868;4.382;2023-02-20T06:10:35;8.30;99.90
20070;DHT22;10195;50.868;4.382;2023-02-20T06:13:00;8.40;99.90
20070;DHT22;10195;50.868;4.382;2023-02-20T06:15:27;8.40;99.90
20070;DHT22;10195;50.868;4.382;2023-02-20T06:17:52;8.30;99.90
20070;DHT22;10195;50.868;4.382;2023-02-20T06:20:18;8.20;99.90
20070;DHT22;10195;50.868;4.382;2023-02-20T06:22:49;8.20;99.90
20070;DHT22;10195;50.868;4.382;2023-02-20T06:25:15;8.20;99.90
20070;DHT22;10195;50.868;4.382;2023-02-20T06:27:40;8.10;99.90
20070;DHT22;10195;50.868;4.382;2023-02-20T06:30:08;8.10;99.90
20070;DHT22;10195;50.868;4.382;2023-02-20T06:32:34;8.30;99.90
20070;DHT22;10195;50.868;4.382;2023-02-20T06:34:59;8.30;99.90
20070;DHT22;10195;50.868;4.382;2023-02-20T06:37:25;8.30;99.90
20070;DHT22;10195;50.868;4.382;2023-02-20T06:39:50;8.20;99.90
20070;DHT22;10195;50.868;4.382;2023-02-20T06:42:16;8.10;99.90
20070;DHT22;10195;50.868;4.382;2023-02-20T06:44:42;8.10;99.90
20070;DHT22;10195;50.868;4.382;2023-02-20T06:47:07;8.10;99.90
20070;DHT22;10195;50.868;4.382;2023-02-20T06:49:36;8.00;99.90
20070;DHT22;10195;50.868;4.382;2023-02-20T06:52:06;8.00;99.90
20070;DHT22;10195;50.868;4.382;2023-02-20T06:54:32;8.10;99.90
20070;DHT22;10195;50.868;4.382;2023-02-20T06:56:59;8.10;99.90
20070;DHT22;10195;50.868;4.382;2023-02-20T06:59:25;8.10;99.90
20070;DHT22;10195;50.868;4.382;2023-02-20T07:01:51;8.10;99.90
20070;DHT22;10195;50.868;4.382;2023-02-20T07:04:19;8.20;99.90
20070;DHT22;10195;50.868;4.382;2023-02-20T07:06:45;8.20;99.90
20070;DHT22;10195;50.868;4.382;2023-02-20T07:09:12;8.20;99.90
20070;DHT22;10195;50.868;4.382;2023-02-20T07:11:38;8.20;99.90
20070;DHT22;10195;50.868;4.382;2023-02-20T07:14:04;8.20;99.90
20070;DHT22;10195;50.868;4.382;2023-02-20T07:16:30;8.20;99.90
20070;DHT22;10195;50.868;4.382;2023-02-20T07:18:56;8.20;99.90
20070;DHT22;10195;50.868;4.382;2023-02-20T07:21:22;8.30;99.90
20070;DHT22;10195;50.868;4.382;2023-02-20T07:23:48;8.30;99.90
20070;DHT22;10195;50.868;4.382;2023-02-20T07:26:24;8.30;99.90
20070;DHT22;10195;50.868;4.382;2023-02-20T07:28:50;8.30;99.90
20070;DHT22;10195;50.868;4.382;2023-02-20T07:31:16;8.30;99.90
20070;DHT22;10195;50.868;4.382;2023-02-20T07:33:42;8.40;99.90
20070;DHT22;10195;50.868;4.382;2023-02-20T07:36:12;8.40;99.90
20070;DHT22;10195;50.868;4.382;2023-02-20T07:38:38;8.40;99.90
20070;DHT22;10195;50.868;4.382;2023-02-20T07:41:05;8.40;99.90
20070;DHT22;10195;50.868;4.382;2023-02-20T07:43:30;8.40;99.90
20070;DHT22;10195;50.868;4.382;2023-02-20T07:45:56;8.30;99.90
20070;DHT22;10195;50.868;4.382;2023-02-20T07:48:22;8.40;99.90
20070;DHT22;10195;50.868;4.382;2023-02-20T07:50:48;8.40;99.90
20070;DHT22;10195;50.868;4.382;2023-02-20T07:53:16;8.40;99.90
20070;DHT22;10195;50.868;4.382;2023-02-20T07:55:42;8.50;99.90
20070;DHT22;10195;50.868;4.382;2023-02-20T07:58:07;8.50;99.90
20070;DHT22;10195;50.868;4.382;2023-02-20T08:00:33;8.70;99.90
20070;DHT22;10195;50.868;4.382;2023-02-20T08:02:59;8.70;99.90
20070;DHT22;10195;50.868;4.382;2023-02-20T08:05:25;8.70;99.90
20070;DHT22;10195;50.868;4.382;2023-02-20T08:07:51;8.60;99.90
20070;DHT22;10195;50.868;4.382;2023-02-20T08:10:19;8.70;99.90
20070;DHT22;10195;50.868;4.382;2023-02-20T08:12:46;8.60;99.90
20070;DHT22;10195;50.868;4.382;2023-02-20T08:15:12;8.60;99.90
20070;DHT22;10195;50.868;4.382;2023-02-20T08:17:38;8.50;99.90
20070;DHT22;10195;50.868;4.382;2023-02-20T08:20:05;8.50;99.90
20070;DHT22;10195;50.868;4.382;2023-02-20T08:22:33;8.50;99.90
20070;DHT22;10195;50.868;4.382;2023-02-20T08:24:58;8.50;99.90
20070;DHT22;10195;50.868;4.382;2023-02-20T08:27:25;8.50;99.90
20070;DHT22;10195;50.868;4.382;2023-02-20T08:29:51;8.60;99.90
20070;DHT22;10195;50.868;4.382;2023-02-20T08:32:17;8.80;99.90
20070;DHT22;10195;50.868;4.382;2023-02-20T08:34:43;8.70;99.90
20070;DHT22;10195;50.868;4.382;2023-02-20T08:37:09;8.80;99.90
20070;DHT22;10195;50.868;4.382;2023-02-20T08:39:35;8.80;99.90
20070;DHT22;10195;50.868;4.382;2023-02-20T08:42:01;8.80;99.90
20070;DHT22;10195;50.868;4.382;2023-02-20T08:44:26;8.90;99.90
20070;DHT22;10195;50.868;4.382;2023-02-20T08:46:52;8.80;99.90
20070;DHT22;10195;50.868;4.382;2023-02-20T08:49:18;8.80;99.90
20070;DHT22;10195;50.868;4.382;2023-02-20T08:51:45;8.80;99.90
20070;DHT22;10195;50.868;4.382;2023-02-20T08:54:11;8.80;99.90
20070;DHT22;10195;50.868;4.382;2023-02-20T08:56:37;8.90;99.90
20070;DHT22;10195;50.868;4.382;2023-02-20T08:59:03;8.90;99.90
20070;DHT22;10195;50.868;4.382;2023-02-20T09:01:28;8.90;99.90
20070;DHT22;10195;50.868;4.382;2023-02-20T09:03:54;9.00;99.90
20070;DHT22;10195;50.868;4.382;2023-02-20T09:06:20;9.00;99.90
20070;DHT22;10195;50.868;4.382;2023-02-20T09:08:49;8.90;99.90
20070;DHT22;10195;50.868;4.382;2023-02-20T09:11:14;8.90;99.90
20070;DHT22;10195;50.868;4.382;2023-02-20T09:13:44;8.90;99.90
20070;DHT22;10195;50.868;4.382;2023-02-20T09:16:12;9.10;99.90
20070;DHT22;10195;50.868;4.382;2023-02-20T09:18:38;9.20;99.90
20070;DHT22;10195;50.868;4.382;2023-02-20T09:21:08;9.10;99.90
20070;DHT22;10195;50.868;4.382;2023-02-20T09:23:34;9.10;99.90
20070;DHT22;10195;50.868;4.382;2023-02-20T09:25:59;9.10;99.90
20070;DHT22;10195;50.868;4.382;2023-02-20T09:28:25;9.10;99.90
20070;DHT22;10195;50.868;4.382;2023-02-20T09:30:50;9.00;99.90
20070;DHT22;10195;50.868;4.382;2023-02-20T09:33:19;9.20;99.90
20070;DHT22;10195;50.868;4.382;2023-02-20T09:35:45;9.10;99.90
20070;DHT22;10195;50.868;4.382;2023-02-20T09:38:14;9.30;99.90
20070;DHT22;10195;50.868;4.382;2023-02-20T09:40:40;9.30;99.90
20070;DHT22;10195;50.868;4.382;2023-02-20T09:46:05;9.30;99.90
20070;DHT22;10195;50.868;4.382;2023-02-20T09:51:18;9.20;99.90
20070;DHT22;10195;50.868;4.382;2023-02-20T09:54:04;9.10;99.90
20070;DHT22;10195;50.868;4.382;2023-02-20T09:56:54;9.20;99.90
20070;DHT22;10195;50.868;4.382;2023-02-20T09:59:26;9.20;99.90
20070;DHT22;10195;50.868;4.382;2023-02-20T10:02:13;9.30;99.90
20070;DHT22;10195;50.868;4.382;2023-02-20T10:04:46;9.40;99.90
20070;DHT22;10195;50.868;4.382;2023-02-20T10:09:55;9.40;99.90
20070;DHT22;10195;50.868;4.382;2023-02-20T10:12:26;9.30;99.90
20070;DHT22;10195;50.868;4.382;2023-02-20T10:21:05;9.20;99.90
20070;DHT22;10195;50.868;4.382;2023-02-20T10:23:50;9.20;99.90
20070;DHT22;10195;50.868;4.382;2023-02-20T10:26:21;9.30;99.90
20070;DHT22;10195;50.868;4.382;2023-02-20T10:28:51;9.40;99.90
20070;DHT22;10195;50.868;4.382;2023-02-20T10:33:53;9.50;99.90
20070;DHT22;10195;50.868;4.382;2023-02-20T10:36:37;9.50;99.90
20070;DHT22;10195;50.868;4.382;2023-02-20T10:39:13;9.60;99.90
20070;DHT22;10195;50.868;4.382;2023-02-20T10:44:49;9.60;99.90
20070;DHT22;10195;50.868;4.382;2023-02-20T10:50:44;9.70;99.90
20070;DHT22;10195;50.868;4.382;2023-02-20T10:52:52;9.80;99.90
20070;DHT22;10195;50.868;4.382;2023-02-20T10:55:29;9.80;99.90
20070;DHT22;10195;50.868;4.382;2023-02-20T10:58:07;9.90;99.90
20070;DHT22;10195;50.868;4.382;2023-02-20T11:00:38;9.90;99.90
20070;DHT22;10195;50.868;4.382;2023-02-20T11:03:14;9.90;99.90
20070;DHT22;10195;50.868;4.382;2023-02-20T11:05:46;9.90;99.90
20070;DHT22;10195;50.868;4.382;2023-02-20T11:08:13;9.90;99.90
20070;DHT22;10195;50.868;4.382;2023-02-20T11:10:48;9.90;99.90
20070;DHT22;10195;50.868;4.382;2023-02-20T11:13:21;9.90;99.90
20070;DHT22;10195;50.868;4.382;2023-02-20T11:15:50;9.90;99.90
20070;DHT22;10195;50.868;4.382;2023-02-20T11:18:23;9.90;99.90
20070;DHT22;10195;50.868;4.382;2023-02-20T11:20:51;9.90;99.90
20070;DHT22;10195;50.868;4.382;2023-02-20T11:23:37;9.80;99.90
20070;DHT22;10195;50.868;4.382;2023-02-20T11:26:21;9.60;99.90
20070;DHT22;10195;50.868;4.382;2023-02-20T11:29:24;9.60;99.90
20070;DHT22;10195;50.868;4.382;2023-02-20T11:31:53;9.60;99.90
20070;DHT22;10195;50.868;4.382;2023-02-20T11:34:31;9.50;99.90
20070;DHT22;10195;50.868;4.382;2023-02-20T11:37:04;9.60;99.90
20070;DHT22;10195;50.868;4.382;2023-02-20T11:39:32;9.50;99.90
20070;DHT22;10195;50.868;4.382;2023-02-20T11:44:39;9.50;99.90
20070;DHT22;10195;50.868;4.382;2023-02-20T11:49:35;9.60;99.90
20070;DHT22;10195;50.868;4.382;2023-02-20T11:54:42;9.70;99.90
20070;DHT22;10195;50.868;4.382;2023-02-20T11:57:26;9.80;99.90
20070;DHT22;10195;50.868;4.382;2023-02-20T12:00:12;9.80;99.90
20070;DHT22;10195;50.868;4.382;2023-02-20T12:05:19;9.80;99.90
20070;DHT22;10195;50.868;4.382;2023-02-20T12:12:57;9.90;99.90
20070;DHT22;10195;50.868;4.382;2023-02-20T12:15:26;10.00;99.90
20070;DHT22;10195;50.868;4.382;2023-02-20T12:18:10;10.20;99.90
20070;DHT22;10195;50.868;4.382;2023-02-20T12:20:43;10.20;99.90
20070;DHT22;10195;50.868;4.382;2023-02-20T12:28:30;10.10;99.90
20070;DHT22;10195;50.868;4.382;2023-02-20T12:33:56;10.00;99.90
20070;DHT22;10195;50.868;4.382;2023-02-20T12:39:16;10.10;99.90
20070;DHT22;10195;50.868;4.382;2023-02-20T12:42:06;10.10;99.90
20070;DHT22;10195;50.868;4.382;2023-02-20T12:47:11;10.40;99.90
20070;DHT22;10195;50.868;4.382;2023-02-20T12:49:53;10.30;99.90
20070;DHT22;10195;50.868;4.382;2023-02-20T12:52:35;10.30;99.90
20070;DHT22;10195;50.868;4.382;2023-02-20T13:00:43;10.30;99.90
20070;DHT22;10195;50.868;4.382;2023-02-20T13:03:18;10.30;99.90
20070;DHT22;10195;50.868;4.382;2023-02-20T13:05:47;10.20;99.90
20070;DHT22;10195;50.868;4.382;2023-02-20T13:08:33;10.00;99.90
20070;DHT22;10195;50.868;4.382;2023-02-20T13:11:04;10.00;99.90
20070;DHT22;10195;50.868;4.382;2023-02-20T13:16:36;10.10;99.90
20070;DHT22;10195;50.868;4.382;2023-02-20T13:19:20;10.30;99.90
20070;DHT22;10195;50.868;4.382;2023-02-20T13:21:48;10.40;99.90
20070;DHT22;10195;50.868;4.382;2023-02-20T13:26:49;10.40;99.90
20070;DHT22;10195;50.868;4.382;2023-02-20T13:29:18;10.40;99.90
20070;DHT22;10195;50.868;4.382;2023-02-20T13:31:59;10.20;99.90
20070;DHT22;10195;50.868;4.382;2023-02-20T13:34:29;10.20;99.90
20070;DHT22;10195;50.868;4.382;2023-02-20T13:36:56;10.30;99.90
20070;DHT22;10195;50.868;4.382;2023-02-20T13:39:37;10.30;99.90
20070;DHT22;10195;50.868;4.382;2023-02-20T13:42:23;10.40;99.90
20070;DHT22;10195;50.868;4.382;2023-02-20T13:44:49;10.40;99.90
20070;DHT22;10195;50.868;4.382;2023-02-20T13:55:12;10.20;99.90
20070;DHT22;10195;50.868;4.382;2023-02-20T14:00:28;10.30;99.90
20070;DHT22;10195;50.868;4.382;2023-02-20T14:02:59;10.30;99.90
20070;DHT22;10195;50.868;4.382;2023-02-20T14:05:30;10.20;99.90
20070;DHT22;10195;50.868;4.382;2023-02-20T14:07:57;10.10;99.90
20070;DHT22;10195;50.868;4.382;2023-02-20T14:10:33;10.20;99.90
20070;DHT22;10195;50.868;4.382;2023-02-20T14:13:05;10.30;99.90
20070;DHT22;10195;50.868;4.382;2023-02-20T14:16:02;10.30;99.90
20070;DHT22;10195;50.868;4.382;2023-02-20T14:18:33;10.40;99.90
20070;DHT22;10195;50.868;4.382;2023-02-20T14:21:18;10.50;99.90
20070;DHT22;10195;50.868;4.382;2023-02-20T14:23:47;10.40;99.90
20070;DHT22;10195;50.868;4.382;2023-02-20T14:26:31;10.40;99.90
20070;DHT22;10195;50.868;4.382;2023-02-20T14:28:59;10.40;99.90
20070;DHT22;10195;50.868;4.382;2023-02-20T14:31:33;10.30;99.90
20070;DHT22;10195;50.868;4.382;2023-02-20T14:34:14;10.30;99.90
20070;DHT22;10195;50.868;4.382;2023-02-20T14:36:54;10.40;99.90
20070;DHT22;10195;50.868;4.382;2023-02-20T14:42:14;10.60;99.90
20070;DHT22;10195;50.868;4.382;2023-02-20T14:44:40;10.60;99.90
20070;DHT22;10195;50.868;4.382;2023-02-20T14:47:11;10.50;99.90
20070;DHT22;10195;50.868;4.382;2023-02-20T14:49:38;10.60;99.90
20070;DHT22;10195;50.868;4.382;2023-02-20T14:52:14;10.70;99.90
20070;DHT22;10195;50.868;4.382;2023-02-20T14:54:43;10.60;99.90
20070;DHT22;10195;50.868;4.382;2023-02-20T14:57:13;10.60;99.90
20070;DHT22;10195;50.868;4.382;2023-02-20T14:59:39;10.60;99.90
20070;DHT22;10195;50.868;4.382;2023-02-20T15:02:21;10.60;99.90
20070;DHT22;10195;50.868;4.382;2023-02-20T15:04:54;10.70;99.90
20070;DHT22;10195;50.868;4.382;2023-02-20T15:07:22;10.70;99.90
20070;DHT22;10195;50.868;4.382;2023-02-20T15:09:50;10.60;99.90
20070;DHT22;10195;50.868;4.382;2023-02-20T15:12:41;10.60;99.90
20070;DHT22;10195;50.868;4.382;2023-02-20T15:15:11;10.60;99.90
20070;DHT22;10195;50.868;4.382;2023-02-20T15:17:40;10.60;99.90
20070;DHT22;10195;50.868;4.382;2023-02-20T15:20:17;10.50;99.90
20070;DHT22;10195;50.868;4.382;2023-02-20T15:22:43;10.50;99.90
20070;DHT22;10195;50.868;4.382;2023-02-20T15:28:08;10.50;99.90
20070;DHT22;10195;50.868;4.382;2023-02-20T15:33:25;10.40;99.90
20070;DHT22;10195;50.868;4.382;2023-02-20T15:35:51;10.30;99.90
20070;DHT22;10195;50.868;4.382;2023-02-20T15:38:17;10.30;99.90
20070;DHT22;10195;50.868;4.382;2023-02-20T15:40:43;10.40;99.90
20070;DHT22;10195;50.868;4.382;2023-02-20T15:43:13;10.40;99.90
20070;DHT22;10195;50.868;4.382;2023-02-20T15:45:39;10.40;99.90
20070;DHT22;10195;50.868;4.382;2023-02-20T15:48:06;10.40;99.90
20070;DHT22;10195;50.868;4.382;2023-02-20T15:50:33;10.50;99.90
20070;DHT22;10195;50.868;4.382;2023-02-20T15:53:00;10.30;99.90
20070;DHT22;10195;50.868;4.382;2023-02-20T15:55:28;10.20;99.90
20070;DHT22;10195;50.868;4.382;2023-02-20T15:57:57;10.20;99.90
20070;DHT22;10195;50.868;4.382;2023-02-20T16:00:29;10.20;99.90
20070;DHT22;10195;50.868;4.382;2023-02-20T16:02:58;10.30;99.90
20070;DHT22;10195;50.868;4.382;2023-02-20T16:05:25;10.30;99.90
20070;DHT22;10195;50.868;4.382;2023-02-20T16:07:51;10.20;99.90
20070;DHT22;10195;50.868;4.382;2023-02-20T16:10:19;10.10;99.90
20070;DHT22;10195;50.868;4.382;2023-02-20T16:12:54;10.00;99.90
20070;DHT22;10195;50.868;4.382;2023-02-20T16:15:20;9.90;99.90
20070;DHT22;10195;50.868;4.382;2023-02-20T16:17:46;10.00;99.90
20070;DHT22;10195;50.868;4.382;2023-02-20T16:20:15;10.00;99.90
20070;DHT22;10195;50.868;4.382;2023-02-20T16:22:41;10.10;99.90
20070;DHT22;10195;50.868;4.382;2023-02-20T16:25:07;10.10;99.90
20070;DHT22;10195;50.868;4.382;2023-02-20T16:27:32;10.00;99.90
20070;DHT22;10195;50.868;4.382;2023-02-20T16:29:58;10.10;99.90
20070;DHT22;10195;50.868;4.382;2023-02-20T16:32:28;10.20;99.90
20070;DHT22;10195;50.868;4.382;2023-02-20T16:34:56;10.20;99.90
20070;DHT22;10195;50.868;4.382;2023-02-20T16:37:23;10.20;99.90
20070;DHT22;10195;50.868;4.382;2023-02-20T16:39:49;10.30;99.90
20070;DHT22;10195;50.868;4.382;2023-02-20T16:42:17;10.30;99.90
20070;DHT22;10195;50.868;4.382;2023-02-20T16:44:45;10.20;99.90
20070;DHT22;10195;50.868;4.382;2023-02-20T16:47:14;10.20;99.90
20070;DHT22;10195;50.868;4.382;2023-02-20T16:49:41;10.20;99.90
20070;DHT22;10195;50.868;4.382;2023-02-20T16:52:23;10.10;99.90
20070;DHT22;10195;50.868;4.382;2023-02-20T16:54:50;10.10;99.90
20070;DHT22;10195;50.868;4.382;2023-02-20T16:57:17;10.10;99.90
20070;DHT22;10195;50.868;4.382;2023-02-20T16:59:43;10.00;99.90
20070;DHT22;10195;50.868;4.382;2023-02-20T17:02:18;10.00;99.90
20070;DHT22;10195;50.868;4.382;2023-02-20T17:04:44;10.00;99.90
20070;DHT22;10195;50.868;4.382;2023-02-20T17:07:10;10.00;99.90
20070;DHT22;10195;50.868;4.382;2023-02-20T17:09:37;9.90;99.90
20070;DHT22;10195;50.868;4.382;2023-02-20T17:12:03;10.00;99.90
20070;DHT22;10195;50.868;4.382;2023-02-20T17:14:28;10.00;99.90
20070;DHT22;10195;50.868;4.382;2023-02-20T17:16:54;9.90;99.90
20070;DHT22;10195;50.868;4.382;2023-02-20T17:19:20;9.90;99.90
20070;DHT22;10195;50.868;4.382;2023-02-20T17:21:49;9.90;99.90
20070;DHT22;10195;50.868;4.382;2023-02-20T17:24:15;9.90;99.90
20070;DHT22;10195;50.868;4.382;2023-02-20T17:26:41;9.90;99.90
20070;DHT22;10195;50.868;4.382;2023-02-20T17:29:07;9.90;99.90
20070;DHT22;10195;50.868;4.382;2023-02-20T17:31:33;9.90;99.90
20070;DHT22;10195;50.868;4.382;2023-02-20T17:33:58;9.90;99.90
20070;DHT22;10195;50.868;4.382;2023-02-20T17:36:24;9.80;99.90
20070;DHT22;10195;50.868;4.382;2023-02-20T17:38:50;9.80;99.90
20070;DHT22;10195;50.868;4.382;2023-02-20T17:41:16;9.80;99.90
20070;DHT22;10195;50.868;4.382;2023-02-20T17:43:43;9.90;99.90
20070;DHT22;10195;50.868;4.382;2023-02-20T17:46:09;9.70;99.90
20070;DHT22;10195;50.868;4.382;2023-02-20T17:48:35;9.80;99.90
20070;DHT22;10195;50.868;4.382;2023-02-20T17:51:00;9.80;99.90